createdAt,value
2019-03-28T00:00:31.924Z,20.57
2019-03-28T00:05:34.372Z,18.83
2019-03-28T00:10:36.918Z,21.83
2019-03-28T00:15:39.319Z,19.87
2019-03-28T00:20:41.792Z,16.37
2019-03-28T00:25:44.257Z,22.53
2019-03-28T00:30:46.728Z,16.17
2019-03-28T00:35:49.209Z,21.43
2019-03-28T00:40:51.680Z,21.67
2019-03-28T00:45:54.131Z,19.40
2019-03-28T00:50:56.606Z,20.73
2019-03-28T00:55:59.075Z,18.50
2019-03-28T01:01:01.541Z,20.47
2019-03-28T01:06:04.003Z,18.83
2019-03-28T01:11:06.474Z,19.33
2019-03-28T01:16:08.938Z,19.80
2019-03-28T01:21:11.404Z,21.07
2019-03-28T01:26:13.867Z,28.73
2019-03-28T01:31:16.331Z,23.60
2019-03-28T01:36:18.802Z,24.13
2019-03-28T01:41:21.248Z,17.43
2019-03-28T01:46:23.748Z,18.13
2019-03-28T01:51:26.208Z,16.30
2019-03-28T01:56:28.665Z,18.57
2019-03-28T02:01:31.153Z,20.23
2019-03-28T02:06:34.187Z,16.00
2019-03-28T02:11:36.091Z,21.57
2019-03-28T02:16:38.553Z,21.27
2019-03-28T02:21:41.014Z,20.93
2019-03-28T02:26:43.476Z,18.57
2019-03-28T02:31:45.921Z,15.53
2019-03-28T02:36:48.401Z,19.33
2019-03-28T02:41:50.895Z,23.73
2019-03-28T02:46:53.364Z,19.07
2019-03-28T02:51:55.882Z,15.43
2019-03-28T02:56:58.313Z,18.50
2019-03-28T03:02:00.807Z,20.57
2019-03-28T03:07:03.269Z,16.63
2019-03-28T03:12:05.731Z,17.83
2019-03-28T03:17:08.254Z,19.70
2019-03-28T03:22:10.747Z,21.13
2019-03-28T03:27:13.232Z,19.70
2019-03-28T03:32:15.708Z,15.03
2019-03-28T03:37:18.164Z,17.23
2019-03-28T03:42:20.642Z,20.43
2019-03-28T03:47:23.112Z,17.37
2019-03-28T03:52:25.578Z,20.53
2019-03-28T03:57:28.050Z,25.07
2019-03-28T04:02:30.509Z,17.13
2019-03-28T04:07:32.988Z,16.03
2019-03-28T04:12:35.449Z,18.97
2019-03-28T04:17:37.932Z,14.13
2019-03-28T04:22:40.400Z,17.27
2019-03-28T04:27:42.864Z,15.27
2019-03-28T04:32:45.340Z,21.10
2019-03-28T04:37:47.801Z,15.23
2019-03-28T04:42:50.267Z,15.87
2019-03-28T04:47:52.755Z,17.53
2019-03-28T04:52:55.230Z,17.47
2019-03-28T04:57:57.691Z,17.50
2019-03-28T05:03:00.168Z,16.93
2019-03-28T05:08:02.643Z,22.07
2019-03-28T05:13:05.104Z,20.53
2019-03-28T05:18:07.565Z,16.57
2019-03-28T05:23:10.095Z,19.27
2019-03-28T05:28:12.566Z,17.23
2019-03-28T05:33:15.032Z,17.07
2019-03-28T05:38:17.513Z,17.73
2019-03-28T05:43:19.996Z,19.47
2019-03-28T05:48:22.485Z,17.83
2019-03-28T05:53:24.960Z,16.40
2019-03-28T05:58:27.431Z,18.43
2019-03-28T06:03:29.914Z,20.97
2019-03-28T06:08:32.390Z,18.63
2019-03-28T06:13:34.858Z,15.40
2019-03-28T06:18:37.320Z,13.33
2019-03-28T06:23:39.786Z,13.27
2019-03-28T06:28:42.250Z,19.27
2019-03-28T06:33:44.723Z,20.87
2019-03-28T06:38:47.194Z,18.70
2019-03-28T06:43:49.659Z,25.60
2019-03-28T06:48:52.134Z,18.20
2019-03-28T06:53:57.071Z,22.20
2019-03-28T06:58:57.076Z,24.23
2019-03-28T07:03:59.534Z,30.43
2019-03-28T07:09:02.010Z,26.27
2019-03-28T07:14:04.536Z,28.73
2019-03-28T07:19:07.001Z,39.63
2019-03-28T07:24:09.514Z,30.90
2019-03-28T07:29:11.985Z,28.87
2019-03-28T07:34:14.478Z,31.93
2019-03-28T07:39:19.115Z,31.97
2019-03-28T07:44:19.442Z,33.33
2019-03-28T07:49:21.911Z,30.60
2019-03-28T07:54:24.386Z,31.97
2019-03-28T07:59:26.876Z,29.30
2019-03-28T08:04:29.383Z,27.47
2019-03-28T08:09:36.790Z,27.90
2019-03-28T08:14:34.327Z,26.87
2019-03-28T08:19:37.617Z,25.23
2019-03-28T08:24:39.289Z,21.37
2019-03-28T08:29:41.772Z,21.23
2019-03-28T08:34:44.764Z,22.47
2019-03-28T08:39:46.725Z,26.63
2019-03-28T08:44:49.212Z,20.27
2019-03-28T08:49:51.741Z,24.50
2019-03-28T08:54:54.229Z,20.30
2019-03-28T08:59:56.718Z,17.17
2019-03-28T09:04:59.190Z,21.00
2019-03-28T09:10:01.665Z,28.23
2019-03-28T09:15:07.178Z,20.67
2019-03-28T09:20:09.655Z,17.60
2019-03-28T09:25:12.485Z,19.10
2019-03-28T09:30:14.585Z,15.20
2019-03-28T09:35:17.058Z,15.80
2019-03-28T09:40:19.529Z,16.25
2019-03-28T09:45:22.011Z,15.35
2019-03-28T09:50:24.486Z,14.82
2019-03-28T09:55:26.973Z,16.40
2019-03-28T10:00:32.571Z,15.55
2019-03-28T10:05:31.953Z,17.30
2019-03-28T10:10:34.446Z,15.25
2019-03-28T10:15:37.291Z,14.15
2019-03-28T10:20:39.602Z,16.98
2019-03-28T10:25:42.077Z,13.15
2019-03-28T10:30:44.966Z,17.33
2019-03-28T10:35:47.230Z,14.18
2019-03-28T10:40:49.702Z,14.13
2019-03-28T10:45:52.174Z,17.07
2019-03-28T10:50:54.651Z,13.60
2019-03-28T10:55:57.128Z,15.00
2019-03-28T11:00:59.612Z,12.77
2019-03-28T11:06:02.090Z,17.58
2019-03-28T11:11:04.552Z,17.00
2019-03-28T11:16:07.029Z,15.60
2019-03-28T11:21:09.528Z,15.63
2019-03-28T11:26:11.991Z,15.87
2019-03-28T11:31:14.468Z,15.67
2019-03-28T11:36:16.928Z,19.03
2019-03-28T11:41:19.390Z,18.33
2019-03-28T11:46:21.873Z,17.70
2019-03-28T11:51:24.321Z,17.63
2019-03-28T11:56:26.812Z,16.57
2019-03-28T12:01:29.301Z,17.93
2019-03-28T12:06:31.755Z,17.17
2019-03-28T12:11:34.221Z,14.97
2019-03-28T12:16:36.698Z,14.33
2019-03-28T12:21:39.162Z,16.20
2019-03-28T12:26:41.658Z,17.20
2019-03-28T12:31:44.124Z,15.63
2019-03-28T12:36:46.592Z,15.37
2019-03-28T12:41:49.071Z,11.27
2019-03-28T12:46:51.543Z,19.83
2019-03-28T12:51:54.043Z,21.17
2019-03-28T12:56:58.166Z,15.30
2019-03-28T13:01:58.973Z,21.67
2019-03-28T13:07:01.461Z,16.30
2019-03-28T13:12:03.936Z,19.67
2019-03-28T13:17:06.398Z,15.77
2019-03-28T13:22:08.877Z,16.90
2019-03-28T13:27:11.425Z,17.20
2019-03-28T13:32:13.791Z,14.77
2019-03-28T13:37:16.277Z,19.37
2019-03-28T13:42:18.737Z,15.77
2019-03-28T13:47:21.238Z,14.57
2019-03-28T13:52:23.689Z,15.67
2019-03-28T13:57:26.143Z,12.50
2019-03-28T14:02:28.617Z,12.53
2019-03-28T14:07:31.080Z,11.73
2019-03-28T14:12:33.515Z,15.33
2019-03-28T14:17:35.969Z,11.90
2019-03-28T14:22:38.413Z,9.83
2019-03-28T14:27:40.858Z,9.50
2019-03-28T14:32:53.097Z,9.43
2019-03-28T14:37:45.894Z,11.00
2019-03-28T14:42:48.357Z,9.37
2019-03-28T14:47:50.806Z,10.57
2019-03-28T14:52:53.270Z,11.93
2019-03-28T14:57:55.747Z,6.40
2019-03-28T15:02:58.198Z,7.60
2019-03-28T15:08:00.651Z,7.37
2019-03-28T15:13:03.101Z,8.43
2019-03-28T15:18:05.548Z,6.47
2019-03-28T15:23:08.024Z,5.93
2019-03-28T15:28:10.503Z,3.77
2019-03-28T15:33:12.932Z,3.00
2019-03-28T15:38:15.377Z,4.47
2019-03-28T15:43:17.859Z,2.57
2019-03-28T15:48:20.374Z,2.90
2019-03-28T15:53:23.185Z,3.30
2019-03-28T15:58:25.244Z,2.27
2019-03-28T16:03:27.701Z,3.87
2019-03-28T16:08:30.162Z,2.67
2019-03-28T16:13:32.633Z,4.70
2019-03-28T16:18:35.097Z,5.13
2019-03-28T16:23:37.613Z,3.17
2019-03-28T16:28:40.732Z,4.53
2019-03-28T16:33:42.521Z,3.80
2019-03-28T16:38:45.725Z,4.10
2019-03-28T16:43:47.418Z,4.23
2019-03-28T16:48:49.879Z,6.33
2019-03-28T16:53:52.339Z,4.90
2019-03-28T16:58:55.521Z,5.60
2019-03-28T17:03:57.255Z,6.33
2019-03-28T17:08:59.698Z,4.97
2019-03-28T17:14:02.162Z,2.33
2019-03-28T17:19:04.648Z,18.40
2019-03-28T17:24:07.077Z,6.97
2019-03-28T17:29:09.557Z,3.27
2019-03-28T17:34:12.025Z,3.53
2019-03-28T17:39:14.481Z,2.80
2019-03-28T17:44:16.957Z,5.67
2019-03-28T17:49:19.407Z,3.57
2019-03-28T17:54:21.898Z,3.00
2019-03-28T17:59:24.353Z,3.77
2019-03-28T18:04:26.839Z,5.47
2019-03-28T18:09:29.298Z,3.07
2019-03-28T18:14:31.781Z,5.20
2019-03-28T18:19:34.234Z,3.60
2019-03-28T18:24:36.703Z,4.07
2019-03-28T18:29:39.168Z,14.97
2019-03-28T18:34:41.621Z,8.10
2019-03-28T18:39:44.104Z,4.50
2019-03-28T18:44:46.560Z,4.83
2019-03-28T18:49:49.015Z,4.03
2019-03-28T18:54:51.466Z,4.47
2019-03-28T18:59:53.912Z,4.50
2019-03-28T19:04:56.623Z,8.53
2019-03-28T19:09:58.899Z,6.37
2019-03-28T19:15:01.387Z,5.03
2019-03-28T19:20:06.555Z,6.37
2019-03-28T19:25:09.343Z,7.63
2019-03-28T19:30:12.474Z,6.17
2019-03-28T19:35:14.018Z,5.63
2019-03-28T19:40:16.503Z,5.93
2019-03-28T19:45:35.866Z,8.53
2019-03-28T19:50:36.454Z,9.43
2019-03-28T19:55:40.069Z,6.57
2019-03-28T20:00:41.393Z,6.70
2019-03-28T20:05:47.895Z,7.80
2019-03-28T20:10:46.345Z,6.87
2019-03-28T20:15:48.799Z,5.97
2019-03-28T20:20:51.280Z,5.10
2019-03-28T20:25:53.745Z,7.70
2019-03-28T20:30:56.350Z,8.00
2019-03-28T20:36:12.005Z,9.63
2019-03-28T20:41:01.144Z,8.47
2019-03-28T20:46:03.630Z,12.90
2019-03-28T20:51:06.176Z,11.47
2019-03-28T20:56:08.576Z,15.07
2019-03-28T21:01:14.066Z,13.17
2019-03-28T21:06:19.382Z,17.10
2019-03-28T21:11:19.001Z,15.10
2019-03-28T21:16:21.466Z,19.97
2019-03-28T21:21:24.382Z,13.23
2019-03-28T21:26:26.595Z,13.80
2019-03-28T21:31:29.047Z,12.00
2019-03-28T21:36:32.279Z,11.67
2019-03-28T21:41:33.969Z,11.53
2019-03-28T21:46:36.423Z,11.37
2019-03-28T21:51:38.856Z,12.20
2019-03-28T21:56:41.641Z,11.47
2019-03-28T22:01:43.786Z,12.37
2019-03-28T22:06:46.306Z,10.33
2019-03-28T22:11:48.709Z,12.93
2019-03-28T22:16:51.193Z,15.40
2019-03-28T22:21:53.663Z,14.23
2019-03-28T22:26:56.176Z,10.13
2019-03-28T22:31:58.653Z,12.90
2019-03-28T22:37:03.656Z,13.50
2019-03-28T22:42:03.567Z,13.37
2019-03-28T22:47:06.167Z,10.47
2019-03-28T22:52:08.486Z,11.47
2019-03-28T22:57:11.019Z,12.90
2019-03-28T23:02:13.473Z,11.03
2019-03-28T23:07:15.958Z,10.60
2019-03-28T23:12:18.394Z,9.50
2019-03-28T23:17:21.048Z,10.90
2019-03-28T23:22:23.292Z,13.80
2019-03-28T23:27:26.931Z,8.53
2019-03-28T23:32:28.184Z,10.00
2019-03-28T23:37:30.646Z,14.53
2019-03-28T23:42:33.100Z,8.47
2019-03-28T23:47:35.562Z,8.87
2019-03-28T23:52:38.015Z,12.63
2019-03-28T23:57:40.469Z,9.67
